This is the latest recevied weather packets stored in our database for station/object DB0ADS-6. If no packets are shown the sender has not sent any weather packets the latest 10 day(s).
| Time | Temp. | Humidity | Pressure | Rain* | Wind** | Luminosity | Snow |
|---|---|---|---|---|---|---|---|
| 1777994133 | 17.78° C | 64% | 1004 hPa | 1.02 mm | - | - | - |
| 1777992624 | 19.44° C | 56% | 1003.5 hPa | 0 mm | - | - | - |
| 1777992322 | 19.44° C | 55% | 1003.5 hPa | 0 mm | - | - | - |
| 1777991174 | 20° C | 54% | 1003.7 hPa | 0 mm | - | - | - |
| 1777990872 | 20° C | 53% | 1003.8 hPa | 0 mm | - | - | - |
| 1777990269 | 20° C | 53% | 1003.8 hPa | 0 mm | - | - | - |
| 1777988459 | 20.56° C | 52% | 1004.1 hPa | 0 mm | - | - | - |
| 1777988157 | 21.11° C | 50% | 1004.2 hPa | 0 mm | - | - | - |
| 1777987858 | 21.11° C | 51% | 1004.2 hPa | 0 mm | - | - | - |
| 1777987573 | 21.11° C | 50% | 1004.2 hPa | 0 mm | - | - | - |
| 1777987253 | 21.67° C | 50% | 1004.3 hPa | 0 mm | - | - | - |
| 1777986950 | 21.11° C | 50% | 1004.4 hPa | 0 mm | - | - | - |
| 1777986651 | 20.56° C | 52% | 1004.4 hPa | 0 mm | - | - | - |
| 1777986346 | 20.56° C | 52% | 1004.5 hPa | 0 mm | - | - | - |
| 1777986044 | 20.56° C | 52% | 1004.6 hPa | 0 mm | - | - | - |
| 1777985441 | 21.11° C | 52% | 1004.6 hPa | 0 mm | - | - | - |
| 1777984837 | 21.11° C | 52% | 1004.7 hPa | 0 mm | - | - | - |
| 1777984535 | 20.56° C | 54% | 1004.8 hPa | 0 mm | - | - | - |
| 1777984233 | 20.56° C | 53% | 1004.9 hPa | 0 mm | - | - | - |
| 1777983931 | 21.11° C | 53% | 1004.9 hPa | 0 mm | - | - | - |
| 1777983630 | 20.56° C | 52% | 1004.9 hPa | 0 mm | - | - | - |
| 1777983328 | 21.11° C | 54% | 1004.9 hPa | 0 mm | - | - | - |
| 1777983025 | 21.11° C | 52% | 1004.9 hPa | 0 mm | - | - | - |
| 1777982728 | 22.22° C | 50% | 1005 hPa | 0 mm | - | - | - |
| 1777982422 | 21.67° C | 50% | 1005 hPa | 0 mm | - | - | - |
* Rain latest hour (hover to see other rain measurements)
** Current wind speed in m/s (hover to see current wind gust speed)